wetterstartseite
Menu Horizontal
luftaufnahme
Willkommen auf der Webseite der privaten Wetterstation -- Taufkirchen an der Pram -- 48°24'29,52" Nord  <>  13°32'13,20" Ost
Wetterdaten - Montag, 20.08.2018 - Taufkirchen an der Pram     336 m über NN
Wetterdaten: aktuell Montag, 20.08.2018 14:30
Datum Zeit Temp. A. Feuchte A. Luftdruck Regen Wind Sonnenschein UV Solar Windchill Empfang
20.08.2018 14:30 30,5 °C 40 % 1016,9 hPa 0,0 l/m² 5,9 km/h 10 min 5,7 UV-I 709 W/m² 30,5 °C 100 %
20.08.2018 14:20 30,4 °C 40 % 1017,0 hPa 0,0 l/m² 6,5 km/h 10 min 5,8 UV-I 715 W/m² 30,4 °C 99 %
20.08.2018 14:10 30,6 °C 39 % 1017,1 hPa 0,0 l/m² 3,8 km/h 10 min 5,9 UV-I 714 W/m² 30,6 °C 100 %
20.08.2018 14:00 30,6 °C 40 % 1017,0 hPa 0,0 l/m² 3,0 km/h 10 min 6,0 UV-I 719 W/m² 30,6 °C 100 %
20.08.2018 13:50 30,6 °C 41 % 1017,2 hPa 0,0 l/m² 2,4 km/h 10 min 6,0 UV-I 719 W/m² 30,6 °C 100 %
20.08.2018 13:40 30,0 °C 41 % 1017,2 hPa 0,0 l/m² 6,6 km/h 10 min 6,2 UV-I 729 W/m² 30,0 °C 100 %
20.08.2018 13:30 30,1 °C 43 % 1017,3 hPa 0,0 l/m² 3,2 km/h 10 min 6,2 UV-I 729 W/m² 30,1 °C 99 %
20.08.2018 13:20 29,7 °C 45 % 1017,4 hPa 0,0 l/m² 5,2 km/h 10 min 6,4 UV-I 738 W/m² 29,7 °C 100 %
20.08.2018 13:10 29,7 °C 43 % 1017,5 hPa 0,0 l/m² 1,9 km/h 10 min 6,3 UV-I 723 W/m² 29,7 °C 99 %
20.08.2018 13:00 29,1 °C 47 % 1017,6 hPa 0,0 l/m² 4,4 km/h 10 min 6,2 UV-I 724 W/m² 29,1 °C 100 %
20.08.2018 12:50 29,3 °C 48 % 1017,7 hPa 0,0 l/m² 1,5 km/h 10 min 6,2 UV-I 714 W/m² 29,3 °C 100 %
20.08.2018 12:40 28,8 °C 50 % 1017,8 hPa 0,0 l/m² 3,4 km/h 10 min 6,2 UV-I 719 W/m² 28,8 °C 100 %
20.08.2018 12:30 28,3 °C 51 % 1017,9 hPa 0,0 l/m² 2,6 km/h 10 min 6,1 UV-I 712 W/m² 28,3 °C 100 %
20.08.2018 12:20 27,8 °C 53 % 1018,0 hPa 0,0 l/m² 4,4 km/h 10 min 5,9 UV-I 695 W/m² 27,8 °C 100 %
20.08.2018 12:10 27,2 °C 54 % 1018,0 hPa 0,0 l/m² 4,8 km/h 10 min 5,8 UV-I 680 W/m² 27,2 °C 100 %
20.08.2018 12:00 27,1 °C 55 % 1018,2 hPa 0,0 l/m² 4,3 km/h 10 min 5,6 UV-I 677 W/m² 27,1 °C 100 %
20.08.2018 11:50 26,8 °C 56 % 1018,1 hPa 0,0 l/m² 1,6 km/h 10 min 5,4 UV-I 658 W/m² 26,8 °C 100 %
20.08.2018 11:40 26,6 °C 56 % 1018,1 hPa 0,0 l/m² 2,1 km/h 10 min 5,2 UV-I 650 W/m² 26,6 °C 100 %
20.08.2018 11:30 26,1 °C 57 % 1018,2 hPa 0,0 l/m² 3,6 km/h 10 min 5,0 UV-I 623 W/m² 26,1 °C 100 %
20.08.2018 11:20 26,1 °C 55 % 1018,3 hPa 0,0 l/m² 3,1 km/h 10 min 4,8 UV-I 614 W/m² 26,1 °C 100 %
20.08.2018 11:10 25,6 °C 59 % 1018,3 hPa 0,0 l/m² 1,5 km/h 10 min 4,6 UV-I 604 W/m² 25,6 °C 100 %
20.08.2018 11:00 25,3 °C 59 % 1018,3 hPa 0,0 l/m² 2,3 km/h 10 min 4,4 UV-I 593 W/m² 25,3 °C 100 %
20.08.2018 10:50 24,9 °C 59 % 1018,4 hPa 0,0 l/m² 3,1 km/h 10 min 4,1 UV-I 571 W/m² 24,9 °C 99 %
20.08.2018 10:40 24,8 °C 58 % 1018,3 hPa 0,0 l/m² 0,8 km/h 10 min 3,9 UV-I 553 W/m² 24,8 °C 100 %
20.08.2018 10:30 24,7 °C 62 % 1018,4 hPa 0,0 l/m² 0,9 km/h 10 min 3,6 UV-I 529 W/m² 24,7 °C 99 %
20.08.2018 10:20 24,1 °C 63 % 1018,4 hPa 0,0 l/m² 1,5 km/h 10 min 3,4 UV-I 503 W/m² 24,1 °C 100 %
20.08.2018 10:10 23,7 °C 64 % 1018,5 hPa 0,0 l/m² 1,8 km/h 10 min 3,1 UV-I 484 W/m² 23,7 °C 100 %
20.08.2018 10:00 23,1 °C 69 % 1018,4 hPa 0,0 l/m² 2,1 km/h 10 min 2,9 UV-I 464 W/m² 23,1 °C 100 %
20.08.2018 09:50 22,8 °C 69 % 1018,3 hPa 0,0 l/m² 1,3 km/h 10 min 2,6 UV-I 439 W/m² 22,8 °C 100 %
20.08.2018 09:40 22,1 °C 71 % 1018,4 hPa 0,0 l/m² 2,0 km/h 10 min 2,4 UV-I 414 W/m² 22,1 °C 100 %
20.08.2018 09:30 21,7 °C 74 % 1018,4 hPa 0,0 l/m² 1,9 km/h 10 min 2,2 UV-I 389 W/m² 21,7 °C 100 %
20.08.2018 09:20 21,2 °C 76 % 1018,3 hPa 0,0 l/m² 0,7 km/h 10 min 1,9 UV-I 359 W/m² 21,2 °C 100 %
20.08.2018 09:10 20,8 °C 78 % 1018,3 hPa 0,0 l/m² 0,9 km/h 10 min 1,7 UV-I 335 W/m² 20,8 °C 100 %
20.08.2018 09:00 20,3 °C 80 % 1018,4 hPa 0,0 l/m² 1,2 km/h 10 min 1,5 UV-I 307 W/m² 20,3 °C 100 %
20.08.2018 08:50 20,1 °C 81 % 1018,4 hPa 0,0 l/m² 0,0 km/h 10 min 1,3 UV-I 280 W/m² 20,1 °C 99 %
20.08.2018 08:40 19,6 °C 82 % 1018,4 hPa 0,0 l/m² 0,0 km/h 10 min 1,2 UV-I 255 W/m² 19,6 °C 99 %
20.08.2018 08:30 19,1 °C 85 % 1018,4 hPa 0,0 l/m² 0,0 km/h 10 min 1,0 UV-I 232 W/m² 19,1 °C 100 %
20.08.2018 08:20 18,2 °C 89 % 1018,4 hPa 0,0 l/m² 0,0 km/h 10 min 0,9 UV-I 206 W/m² 18,2 °C 100 %
20.08.2018 08:10 17,4 °C 93 % 1018,4 hPa 0,0 l/m² 0,0 km/h 10 min 0,8 UV-I 178 W/m² 17,4 °C 100 %
20.08.2018 08:00 16,3 °C 95 % 1018,3 hPa 0,0 l/m² 0,0 km/h 10 min 0,7 UV-I 156 W/m² 16,3 °C 100 %
20.08.2018 07:50 15,7 °C 95 % 1018,2 hPa 0,0 l/m² 0,0 km/h 10 min 0,6 UV-I 134 W/m² 15,7 °C 100 %
20.08.2018 07:40 15,2 °C 95 % 1017,9 hPa 0,0 l/m² 0,0 km/h 0 min 0,4 UV-I 87 W/m² 15,2 °C 100 %
20.08.2018 07:30 15,0 °C 95 % 1017,9 hPa 0,0 l/m² 0,0 km/h 0 min 0,0 UV-I 61 W/m² 15,0 °C 100 %
20.08.2018 07:20 14,8 °C 95 % 1017,9 hPa 0,0 l/m² 0,0 km/h 0 min 0,0 UV-I 48 W/m² 14,8 °C 100 %
20.08.2018 07:10 14,7 °C 95 % 1017,9 hPa 0,0 l/m² 0,0 km/h 0 min 0,0 UV-I 31 W/m² 14,7 °C 100 %
20.08.2018 07:00 14,6 °C 94 % 1017,8 hPa 0,0 l/m² 0,0 km/h 0 min 0,0 UV-I 30 W/m² 14,6 °C 91 %
20.08.2018 06:50 14,4 °C 94 % 1017,7 hPa 0,0 l/m² 0,0 km/h 0 min 0,0 UV-I 24 W/m² 14,4 °C 100 %
20.08.2018 06:40 14,3 °C 94 % 1017,7 hPa 0,0 l/m² 0,0 km/h 0 min 0,0 UV-I 19 W/m² 14,3 °C 100 %
20.08.2018 06:30 14,2 °C 94 % 1017,6 hPa 0,0 l/m² 0,0 km/h 0 min 0,0 UV-I 16 W/m² 14,2 °C 100 %
20.08.2018 06:20 14,1 °C 93 % 1017,5 hPa 0,0 l/m² 0,0 km/h 0 min 0,0 UV-I 8 W/m² 14,1 °C 100 %
20.08.2018 06:10 14,1 °C 93 % 1017,5 hPa 0,0 l/m² 0,0 km/h 0 min 0,0 UV-I 0 W/m² 14,1 °C 100 %
20.08.2018 06:00 14,2 °C 93 % 1017,5 hPa 0,0 l/m² 0,0 km/h 0 min 0,0 UV-I 0 W/m² 14,2 °C 100 %
20.08.2018 05:50 14,3 °C 93 % 1017,4 hPa 0,0 l/m² 0,0 km/h 0 min 0,0 UV-I 0 W/m² 14,3 °C 100 %
20.08.2018 05:40 14,3 °C 93 % 1017,4 hPa 0,0 l/m² 0,0 km/h 0 min 0,0 UV-I 0 W/m² 14,3 °C 100 %
20.08.2018 05:30 14,3 °C 93 % 1017,4 hPa 0,0 l/m² 0,0 km/h 0 min 0,0 UV-I 0 W/m² 14,3 °C 100 %
20.08.2018 05:20 14,4 °C 93 % 1017,4 hPa 0,0 l/m² 0,0 km/h 0 min 0,0 UV-I 0 W/m² 14,4 °C 99 %
20.08.2018 05:10 14,4 °C 93 % 1017,4 hPa 0,0 l/m² 0,0 km/h 0 min 0,0 UV-I 0 W/m² 14,4 °C 100 %
20.08.2018 05:00 14,4 °C 92 % 1017,4 hPa 0,0 l/m² 0,0 km/h 0 min 0,0 UV-I 0 W/m² 14,4 °C 100 %
20.08.2018 04:50 14,6 °C 92 % 1017,4 hPa 0,0 l/m² 0,0 km/h 0 min 0,0 UV-I 0 W/m² 14,6 °C 100 %
20.08.2018 04:40 14,7 °C 92 % 1017,4 hPa 0,0 l/m² 0,0 km/h 0 min 0,0 UV-I 0 W/m² 14,7 °C 99 %
20.08.2018 04:30 14,7 °C 92 % 1017,5 hPa 0,0 l/m² 0,0 km/h 0 min 0,0 UV-I 0 W/m² 14,7 °C 92 %
20.08.2018 04:20 14,8 °C 91 % 1017,5 hPa 0,0 l/m² 0,0 km/h 0 min 0,0 UV-I 0 W/m² 14,8 °C 100 %
20.08.2018 04:10 14,8 °C 91 % 1017,5 hPa 0,0 l/m² 0,0 km/h 0 min 0,0 UV-I 0 W/m² 14,8 °C 100 %
20.08.2018 04:00 14,9 °C 91 % 1017,5 hPa 0,0 l/m² 0,0 km/h 0 min 0,0 UV-I 0 W/m² 14,9 °C 100 %
20.08.2018 03:50 15,1 °C 91 % 1017,4 hPa 0,0 l/m² 0,0 km/h 0 min 0,0 UV-I 0 W/m² 15,1 °C 100 %
20.08.2018 03:40 15,2 °C 91 % 1017,4 hPa 0,0 l/m² 0,0 km/h 0 min 0,0 UV-I 0 W/m² 15,2 °C 100 %
20.08.2018 03:30 15,3 °C 92 % 1017,3 hPa 0,0 l/m² 0,0 km/h 0 min 0,0 UV-I 0 W/m² 15,3 °C 100 %
20.08.2018 03:20 15,3 °C 91 % 1017,3 hPa 0,0 l/m² 0,0 km/h 0 min 0,0 UV-I 0 W/m² 15,3 °C 100 %
20.08.2018 03:10 15,4 °C 91 % 1017,3 hPa 0,0 l/m² 0,0 km/h 0 min 0,0 UV-I 0 W/m² 15,4 °C 100 %
20.08.2018 03:00 15,6 °C 91 % 1017,4 hPa 0,0 l/m² 0,0 km/h 0 min 0,0 UV-I 0 W/m² 15,6 °C 100 %
20.08.2018 02:50 15,7 °C 90 % 1017,3 hPa 0,0 l/m² 0,0 km/h 0 min 0,0 UV-I 0 W/m² 15,7 °C 100 %
20.08.2018 02:40 15,8 °C 90 % 1017,3 hPa 0,0 l/m² 0,0 km/h 0 min 0,0 UV-I 0 W/m² 15,8 °C 100 %
20.08.2018 02:30 15,8 °C 90 % 1017,2 hPa 0,0 l/m² 0,0 km/h 0 min 0,0 UV-I 0 W/m² 15,8 °C 100 %
20.08.2018 02:20 15,9 °C 90 % 1017,2 hPa 0,0 l/m² 0,0 km/h 0 min 0,0 UV-I 0 W/m² 15,9 °C 100 %
20.08.2018 02:10 16,1 °C 89 % 1017,2 hPa 0,0 l/m² 0,0 km/h 0 min 0,0 UV-I 0 W/m² 16,1 °C 100 %
20.08.2018 02:00 16,1 °C 89 % 1017,2 hPa 0,0 l/m² 0,0 km/h 0 min 0,0 UV-I 0 W/m² 16,1 °C 100 %
20.08.2018 01:50 16,2 °C 89 % 1017,4 hPa 0,0 l/m² 0,0 km/h 0 min 0,0 UV-I 0 W/m² 16,2 °C 100 %
20.08.2018 01:40 16,3 °C 89 % 1017,4 hPa 0,0 l/m² 0,0 km/h 0 min 0,0 UV-I 0 W/m² 16,3 °C 100 %
20.08.2018 01:30 16,5 °C 89 % 1017,3 hPa 0,0 l/m² 0,0 km/h 0 min 0,0 UV-I 0 W/m² 16,5 °C 100 %
20.08.2018 01:20 16,6 °C 89 % 1017,3 hPa 0,0 l/m² 0,0 km/h 0 min 0,0 UV-I 0 W/m² 16,6 °C 100 %
20.08.2018 01:10 16,7 °C 88 % 1017,3 hPa 0,0 l/m² 0,0 km/h 0 min 0,0 UV-I 0 W/m² 16,7 °C 100 %
20.08.2018 01:00 16,9 °C 88 % 1017,3 hPa 0,0 l/m² 0,0 km/h 0 min 0,0 UV-I 0 W/m² 16,9 °C 100 %
20.08.2018 00:50 16,9 °C 89 % 1017,3 hPa 0,0 l/m² 0,0 km/h 0 min 0,0 UV-I 0 W/m² 16,9 °C 100 %
20.08.2018 00:40 17,1 °C 88 % 1017,4 hPa 0,0 l/m² 0,0 km/h 0 min 0,0 UV-I 0 W/m² 17,1 °C 100 %
20.08.2018 00:30 17,3 °C 87 % 1017,3 hPa 0,0 l/m² 0,0 km/h 0 min 0,0 UV-I 0 W/m² 17,3 °C 100 %
20.08.2018 00:20 17,6 °C 86 % 1017,4 hPa 0,0 l/m² 0,0 km/h 0 min 0,0 UV-I 0 W/m² 17,6 °C 99 %
20.08.2018 00:10 17,8 °C 84 % 1017,4 hPa 0,0 l/m² 0,0 km/h 0 min 0,0 UV-I 0 W/m² 17,8 °C 100 %
20.08.2018 00:00 18,0 °C 84 % 1017,3 hPa 0,0 l/m² 0,0 km/h 0 min 0,0 UV-I 0 W/m² 18,0 °C 100 %
19.08.2018 23:50 18,2 °C 84 % 1017,3 hPa 0,0 l/m² 0,0 km/h 0 min 0,0 UV-I 0 W/m² 18,2 °C 100 %
19.08.2018 23:40 18,4 °C 83 % 1017,3 hPa 0,0 l/m² 0,0 km/h 0 min 0,0 UV-I 0 W/m² 18,4 °C 100 %
19.08.2018 23:30 18,7 °C 83 % 1017,3 hPa 0,0 l/m² 0,0 km/h 0 min 0,0 UV-I 0 W/m² 18,7 °C 100 %
19.08.2018 23:20 18,8 °C 83 % 1017,3 hPa 0,0 l/m² 0,0 km/h 0 min 0,0 UV-I 0 W/m² 18,8 °C 100 %
19.08.2018 23:10 19,2 °C 81 % 1017,3 hPa 0,0 l/m² 0,0 km/h 0 min 0,0 UV-I 0 W/m² 19,2 °C 100 %
19.08.2018 23:00 19,6 °C 78 % 1017,2 hPa 0,0 l/m² 0,0 km/h 0 min 0,0 UV-I 0 W/m² 19,6 °C 100 %
19.08.2018 22:50 19,8 °C 78 % 1017,1 hPa 0,0 l/m² 0,0 km/h 0 min 0,0 UV-I 0 W/m² 19,8 °C 100 %
19.08.2018 22:40 20,1 °C 78 % 1017,0 hPa 0,0 l/m² 0,0 km/h 0 min 0,0 UV-I 0 W/m² 20,1 °C 100 %
19.08.2018 22:30 20,6 °C 74 % 1016,9 hPa 0,0 l/m² 0,0 km/h 0 min 0,0 UV-I 0 W/m² 20,6 °C 100 %
19.08.2018 22:20 20,9 °C 74 % 1016,9 hPa 0,0 l/m² 0,0 km/h 0 min 0,0 UV-I 0 W/m² 20,9 °C 100 %
19.08.2018 22:10 21,3 °C 73 % 1016,8 hPa 0,0 l/m² 0,0 km/h 0 min 0,0 UV-I 0 W/m² 21,3 °C 100 %
19.08.2018 22:00 21,8 °C 71 % 1016,8 hPa 0,0 l/m² 0,0 km/h 0 min 0,0 UV-I 0 W/m² 21,8 °C 100 %
19.08.2018 21:50 22,3 °C 70 % 1016,7 hPa 0,0 l/m² 0,0 km/h 0 min 0,0 UV-I 0 W/m² 22,3 °C 100 %
19.08.2018 21:40 22,7 °C 70 % 1016,7 hPa 0,0 l/m² 0,0 km/h 0 min 0,0 UV-I 0 W/m² 22,7 °C 100 %
19.08.2018 21:30 23,2 °C 66 % 1016,7 hPa 0,0 l/m² 0,0 km/h 0 min 0,0 UV-I 0 W/m² 23,2 °C 100 %
19.08.2018 21:20 23,7 °C 65 % 1016,7 hPa 0,0 l/m² 0,0 km/h 0 min 0,0 UV-I 0 W/m² 23,7 °C 100 %
19.08.2018 21:10 24,3 °C 63 % 1016,7 hPa 0,0 l/m² 0,0 km/h 0 min 0,0 UV-I 0 W/m² 24,3 °C 100 %
19.08.2018 21:00 25,1 °C 61 % 1016,6 hPa 0,0 l/m² 0,0 km/h 0 min 0,0 UV-I 0 W/m² 25,1 °C 100 %
19.08.2018 20:50 25,8 °C 57 % 1016,6 hPa 0,0 l/m² 0,0 km/h 0 min 0,0 UV-I 0 W/m² 25,8 °C 100 %
19.08.2018 20:40 26,6 °C 55 % 1016,4 hPa 0,0 l/m² 0,0 km/h 0 min 0,0 UV-I 0 W/m² 26,6 °C 99 %
19.08.2018 20:30 27,2 °C 52 % 1016,4 hPa 0,0 l/m² 0,0 km/h 0 min 0,0 UV-I 0 W/m² 27,2 °C 100 %
19.08.2018 20:20 27,8 °C 48 % 1016,3 hPa 0,0 l/m² 0,0 km/h 0 min 0,0 UV-I 1 W/m² 27,8 °C 100 %
19.08.2018 20:10 28,4 °C 47 % 1016,2 hPa 0,0 l/m² 0,0 km/h 0 min 0,0 UV-I 8 W/m² 28,4 °C 100 %
19.08.2018 20:00 28,9 °C 50 % 1016,1 hPa 0,0 l/m² 0,0 km/h 0 min 0,0 UV-I 13 W/m² 28,9 °C 100 %
19.08.2018 19:50 29,4 °C 48 % 1016,1 hPa 0,0 l/m² 0,0 km/h 0 min 0,0 UV-I 22 W/m² 29,4 °C 100 %
19.08.2018 19:40 29,8 °C 42 % 1016,1 hPa 0,0 l/m² 0,0 km/h 0 min 0,0 UV-I 31 W/m² 29,8 °C 100 %
19.08.2018 19:30 30,1 °C 40 % 1016,2 hPa 0,0 l/m² 0,0 km/h 0 min 0,0 UV-I 37 W/m² 30,1 °C 100 %
19.08.2018 19:20 30,2 °C 39 % 1016,2 hPa 0,0 l/m² 0,0 km/h 0 min 0,0 UV-I 55 W/m² 30,2 °C 100 %
19.08.2018 19:10 30,2 °C 39 % 1016,2 hPa 0,0 l/m² 0,1 km/h 0 min 0,0 UV-I 69 W/m² 30,2 °C 100 %
19.08.2018 19:00 30,4 °C 38 % 1016,1 hPa 0,0 l/m² 0,2 km/h 0 min 0,0 UV-I 70 W/m² 30,4 °C 99 %
19.08.2018 18:50 30,7 °C 37 % 1016,1 hPa 0,0 l/m² 0,2 km/h 0 min 0,2 UV-I 87 W/m² 30,7 °C 100 %
19.08.2018 18:40 31,1 °C 36 % 1016,1 hPa 0,0 l/m² 1,6 km/h 10 min 0,6 UV-I 205 W/m² 31,1 °C 100 %
19.08.2018 18:30 31,5 °C 35 % 1016,1 hPa 0,0 l/m² 2,4 km/h 9 min 0,7 UV-I 240 W/m² 31,5 °C 100 %
19.08.2018 18:21 31,9 °C 34 % 1016,2 hPa 0,0 l/m² 2,1 km/h 21 min 0,8 UV-I 268 W/m² 31,9 °C 100 %
19.08.2018 18:00 32,2 °C 35 % 1016,4 hPa 0,0 l/m² 0,0 km/h 10 min 1,1 UV-I 321 W/m² 32,2 °C 100 %
19.08.2018 17:50 32,0 °C 35 % 1016,5 hPa 0,0 l/m² 0,2 km/h 10 min 1,2 UV-I 347 W/m² 32,0 °C 100 %
19.08.2018 17:40 31,8 °C 34 % 1016,6 hPa 0,0 l/m² 3,4 km/h 10 min 1,4 UV-I 375 W/m² 31,8 °C 100 %
19.08.2018 17:30 32,0 °C 34 % 1016,6 hPa 0,0 l/m² 2,5 km/h 10 min 1,6 UV-I 402 W/m² 32,0 °C 99 %
19.08.2018 17:20 32,2 °C 33 % 1016,8 hPa 0,0 l/m² 1,7 km/h 10 min 1,8 UV-I 427 W/m² 32,2 °C 100 %
19.08.2018 17:10 32,1 °C 34 % 1016,9 hPa 0,0 l/m² 2,8 km/h 10 min 2,0 UV-I 451 W/m² 32,1 °C 100 %
19.08.2018 17:00 32,2 °C 34 % 1017,0 hPa 0,0 l/m² 1,5 km/h 10 min 2,2 UV-I 476 W/m² 32,2 °C 100 %
19.08.2018 16:50 31,7 °C 36 % 1017,1 hPa 0,0 l/m² 2,5 km/h 10 min 2,4 UV-I 502 W/m² 31,7 °C 100 %
19.08.2018 16:40 31,8 °C 36 % 1017,1 hPa 0,0 l/m² 3,1 km/h 10 min 2,7 UV-I 521 W/m² 31,8 °C 100 %
19.08.2018 16:30 31,8 °C 37 % 1017,1 hPa 0,0 l/m² 2,5 km/h 10 min 2,9 UV-I 538 W/m² 31,8 °C 100 %
19.08.2018 16:20 32,2 °C 35 % 1017,2 hPa 0,0 l/m² 1,8 km/h 10 min 3,1 UV-I 561 W/m² 32,2 °C 100 %
19.08.2018 16:10 32,8 °C 33 % 1017,3 hPa 0,0 l/m² 1,1 km/h 10 min 3,4 UV-I 578 W/m² 32,8 °C 100 %
19.08.2018 16:00 32,8 °C 34 % 1017,3 hPa 0,0 l/m² 1,3 km/h 10 min 3,6 UV-I 596 W/m² 32,8 °C 100 %
19.08.2018 15:50 32,5 °C 35 % 1017,5 hPa 0,0 l/m² 1,7 km/h 10 min 3,8 UV-I 611 W/m² 32,5 °C 100 %
19.08.2018 15:40 32,7 °C 35 % 1017,6 hPa 0,0 l/m² 2,2 km/h 10 min 4,1 UV-I 634 W/m² 32,7 °C 100 %
19.08.2018 15:30 33,1 °C 33 % 1017,7 hPa 0,0 l/m² 1,1 km/h 10 min 4,3 UV-I 644 W/m² 33,1 °C 100 %
19.08.2018 15:20 32,7 °C 34 % 1017,8 hPa 0,0 l/m² 1,9 km/h 10 min 4,6 UV-I 664 W/m² 32,7 °C 100 %
19.08.2018 15:10 32,6 °C 34 % 1017,9 hPa 0,0 l/m² 1,7 km/h 10 min 4,9 UV-I 687 W/m² 32,6 °C 100 %
19.08.2018 15:00 32,4 °C 35 % 1018,0 hPa 0,0 l/m² 1,1 km/h 10 min 5,1 UV-I 686 W/m² 32,4 °C 100 %
_ Min-Zeit 06:20 17:20 20:00 - 08:50 - - - 06:20 07:00
Minimum _ 14,1 °C 33 % 1016,1 hPa - 0,0 km/h - - - 14,1 °C 91 %
_ Max-Zeit 15:30 08:00 10:10 14:30 13:40 18:21 13:20 13:20 15:30 14:30
Maximum _ 33,1 °C 95 % 1018,5 hPa 0,0 l/m² 6,6 km/h
S
21 min 6,4 UV-I 738 W/m² 33,1 °C 100 %
Durchschnitt _ 23,5 °C 65 % 1017,4 hPa #0,0 l/m² 1,0 km/h #6:50 h 4,0 UV-I 253 W/m² 23,5 °C 100 %